Dalton, WI

10:29 PM CDT on September 01, 2014 (GMT -0500)
Silver Lake Apartments | Change Station
CLOSE
Current Station
Personal Weather Station
Location: Portage, WI
Elevation: 830 ft
Nearby Weather Stations

Elev 830 ft 43.56 °N, 89.48 °W | Updated 1 second ago

Clear
Clear
64.2 °F
Feels Like 64.2 °F
N
0.0
Wind Variable Wind from SW
Gusts 0.0 mph

Today
High -- | Low -- °F
--% Chance of Precip.
Yesterday
High -- | Low -- °F
Precip. -- in
6:20 AM 7:32 PM
Waxing Crescent, 47% visible
Pressure 29.79 in
Visibility 10.0 miles
Clouds Clear
Dew Point 62 °F
Humidity 92%
Rainfall 0.05 in
Snow Depth Not available.
UV 0 out of 12
Pollen 6.30 out of 12
Air Quality Not available.
Flu Activity Not available.
METAR KY50 020256Z AUTO 00000KT 10SM CLR 17/17 A2980 RMK AO2 PWINO TSNO 51016 60000 T01720166 SLP087

More Conditions Fewer Conditions

Pressure 29.79 in
Visibility 10.0 miles
Clouds Clear
Dew Point 62 °F
Humidity 92%
Rainfall 0.05 in
Snow Depth Not available.
UV 0 out of 12
Pollen 6.30 out of 12
Air Quality Not available.
Flu Activity Not available.
METAR KY50 020256Z AUTO 00000KT 10SM CLR 17/17 A2980 RMK AO2 PWINO TSNO 51016 60000 T01720166 SLP087

More Conditions Fewer Conditions

10-Day Weather Forecast

Almanac

Astronomy

Sep. 01, 2014 Rise Set
Actual Time 6:20 AM CDT 7:32 PM CDT
Civil Twilight 5:50 AM CDT 8:01 PM CDT
Nautical Twilight 5:15 AM CDT 8:37 PM CDT
Astronomical Twilight 4:37 AM CDT 9:14 PM CDT
Moon 1:18 PM CDT (9/1) 11:20 PM CDT (9/1)
Length of Visible Light 14h 10m
Length of Day
13h 11m
Tomorrow will be 2m 54s shorter.
Waxing Crescent, 47% of the Moon is Illuminated
Today
Waxing Crescent
Sep 2
First Quarter
Sep 8
Full
Sep 15
Last Quarter
Sep 24
New

Today's Extremes

State Highs State Lows

Community

WunderPhotos

Upload Photos

1,749,546 photos uploaded!

WunderBlogs® & News

Nearby

Snow Depth

Station Depth Elevation
No new snow has been reported.

Earthquake Activity

City Distance Mag. Time & Date
No recent earthquake activity has been reported nearby.
Minimum magnitude displayed is 2.5.

Coastal Water Temperatures

Place Temperature
No Stations Reporting

Nearby Weather Stations